Terminal Aerodrome Forecast
Issued by NWS Springfield, MO

Home | Current Version | Previous Version | Text Only | Print | Product List | Glossary On
Versions: 1 2 3 4 5 6 7 8 9 10 11 12 13 14 15 16 17 18 19 20 21 22 23 24 25 26 27 28 29 30 31 32 33 34 35
000
FTUS43 KSGF 230818 AAB
TAFSGF
TAF AMD
KSGF 230818Z 2308/2406 18007KT 3SM -DZ BR OVC003
     FM231400 28004KT P6SM OVC003
     FM232100 VRB03KT P6SM OVC020
     FM240000 07005KT 3SM SHRA OVC008=

USA.gov is the U.S. government's official web portal to all federal, state and local government web resources and services.